sensor_id;sensor_type;location;lat;lon;timestamp;pressure;altitude;pressure_sealevel;temperature;humidity
68137;BME280;54939;50.826;9.030;2024-03-17T00:00:06;99466.69;;;12.47;67.97
68137;BME280;54939;50.826;9.030;2024-03-17T00:00:36;99462.19;;;12.48;67.73
68137;BME280;54939;50.826;9.030;2024-03-17T00:01:07;99461.19;;;12.49;67.45
68137;BME280;54939;50.826;9.030;2024-03-17T00:01:38;99458.66;;;12.47;67.52
68137;BME280;54939;50.826;9.030;2024-03-17T00:02:08;99460.63;;;12.45;67.87
68137;BME280;54939;50.826;9.030;2024-03-17T00:02:38;99468.41;;;12.48;67.71
68137;BME280;54939;50.826;9.030;2024-03-17T00:03:08;99460.34;;;12.48;67.49
68137;BME280;54939;50.826;9.030;2024-03-17T00:03:38;99465.72;;;12.48;67.90
68137;BME280;54939;50.826;9.030;2024-03-17T00:04:09;99460.34;;;12.48;67.66
68137;BME280;54939;50.826;9.030;2024-03-17T00:04:39;99457.81;;;12.47;67.44
68137;BME280;54939;50.826;9.030;2024-03-17T00:05:09;99461.34;;;12.47;67.54
68137;BME280;54939;50.826;9.030;2024-03-17T00:05:39;99464.03;;;12.47;67.57
68137;BME280;54939;50.826;9.030;2024-03-17T00:06:09;99463.19;;;12.47;67.72
68137;BME280;54939;50.826;9.030;2024-03-17T00:06:39;99461.34;;;12.47;67.89
68137;BME280;54939;50.826;9.030;2024-03-17T00:07:10;99460.50;;;12.47;67.63
68137;BME280;54939;50.826;9.030;2024-03-17T00:07:40;99463.19;;;12.47;67.71
68137;BME280;54939;50.826;9.030;2024-03-17T00:08:10;99460.50;;;12.47;67.81
68137;BME280;54939;50.826;9.030;2024-03-17T00:08:40;99460.50;;;12.47;67.43
68137;BME280;54939;50.826;9.030;2024-03-17T00:09:10;99463.19;;;12.47;67.50
68137;BME280;54939;50.826;9.030;2024-03-17T00:09:41;99456.97;;;12.46;67.92
68137;BME280;54939;50.826;9.030;2024-03-17T00:10:11;99466.69;;;12.47;67.86
68137;BME280;54939;50.826;9.030;2024-03-17T00:10:41;99460.50;;;12.47;67.57
68137;BME280;54939;50.826;9.030;2024-03-17T00:11:11;99462.31;;;12.46;67.81
68137;BME280;54939;50.826;9.030;2024-03-17T00:11:41;99461.34;;;12.47;67.75
68137;BME280;54939;50.826;9.030;2024-03-17T00:12:12;99463.19;;;12.47;68.13
68137;BME280;54939;50.826;9.030;2024-03-17T00:12:42;99463.31;;;12.45;67.89
68137;BME280;54939;50.826;9.030;2024-03-17T00:13:12;99468.53;;;12.47;67.72
68137;BME280;54939;50.826;9.030;2024-03-17T00:13:42;99462.31;;;12.46;67.67
68137;BME280;54939;50.826;9.030;2024-03-17T00:14:12;99467.69;;;12.46;67.54
68137;BME280;54939;50.826;9.030;2024-03-17T00:14:42;99469.53;;;12.46;67.61
68137;BME280;54939;50.826;9.030;2024-03-17T00:15:14;99466.84;;;12.46;67.54
68137;BME280;54939;50.826;9.030;2024-03-17T00:15:44;99468.53;;;12.47;68.03
68137;BME280;54939;50.826;9.030;2024-03-17T00:16:15;99467.69;;;12.46;67.95
68137;BME280;54939;50.826;9.030;2024-03-17T00:16:48;99465.00;;;12.46;67.54
68137;BME280;54939;50.826;9.030;2024-03-17T00:17:18;99464.16;;;12.46;67.60
68137;BME280;54939;50.826;9.030;2024-03-17T00:17:50;99465.84;;;12.47;67.83
68137;BME280;54939;50.826;9.030;2024-03-17T00:18:21;99467.69;;;12.46;67.83
68137;BME280;54939;50.826;9.030;2024-03-17T00:18:51;99463.19;;;12.47;67.83
68137;BME280;54939;50.826;9.030;2024-03-17T00:19:21;99462.31;;;12.46;67.63
68137;BME280;54939;50.826;9.030;2024-03-17T00:19:53;99461.47;;;12.46;67.93
68137;BME280;54939;50.826;9.030;2024-03-17T00:20:23;99463.31;;;12.45;67.96
68137;BME280;54939;50.826;9.030;2024-03-17T00:20:54;99460.50;;;12.47;67.56
68137;BME280;54939;50.826;9.030;2024-03-17T00:21:24;99463.31;;;12.45;67.19
68137;BME280;54939;50.826;9.030;2024-03-17T00:21:56;99464.16;;;12.46;67.65
68137;BME280;54939;50.826;9.030;2024-03-17T00:22:28;99464.16;;;12.46;67.65
68137;BME280;54939;50.826;9.030;2024-03-17T00:22:58;99464.16;;;12.46;67.55
68137;BME280;54939;50.826;9.030;2024-03-17T00:23:29;99463.19;;;12.47;67.85
68137;BME280;54939;50.826;9.030;2024-03-17T00:23:59;99454.44;;;12.45;67.57
68137;BME280;54939;50.826;9.030;2024-03-17T00:24:29;99449.94;;;12.45;67.59
68137;BME280;54939;50.826;9.030;2024-03-17T00:25:05;99457.13;;;12.45;67.44
68137;BME280;54939;50.826;9.030;2024-03-17T00:25:35;99455.28;;;12.45;67.66
68137;BME280;54939;50.826;9.030;2024-03-17T00:26:05;99451.75;;;12.45;67.55
68137;BME280;54939;50.826;9.030;2024-03-17T00:26:36;99456.31;;;12.44;67.38
68137;BME280;54939;50.826;9.030;2024-03-17T00:27:06;99455.28;;;12.45;67.59
68137;BME280;54939;50.826;9.030;2024-03-17T00:27:36;99455.28;;;12.45;67.87
68137;BME280;54939;50.826;9.030;2024-03-17T00:28:09;99458.97;;;12.44;67.79
68137;BME280;54939;50.826;9.030;2024-03-17T00:28:41;99457.13;;;12.45;67.43
68137;BME280;54939;50.826;9.030;2024-03-17T00:29:12;99462.47;;;12.45;67.33
68137;BME280;54939;50.826;9.030;2024-03-17T00:29:42;99451.75;;;12.45;67.33
68137;BME280;54939;50.826;9.030;2024-03-17T00:30:12;99452.59;;;12.45;67.81
68137;BME280;54939;50.826;9.030;2024-03-17T00:30:42;99456.31;;;12.44;67.68
68137;BME280;54939;50.826;9.030;2024-03-17T00:31:13;99459.78;;;12.45;67.40
68137;BME280;54939;50.826;9.030;2024-03-17T00:31:45;99460.63;;;12.45;67.40
68137;BME280;54939;50.826;9.030;2024-03-17T00:32:15;99460.63;;;12.45;67.31
68137;BME280;54939;50.826;9.030;2024-03-17T00:32:45;99455.28;;;12.45;67.90
68137;BME280;54939;50.826;9.030;2024-03-17T00:33:16;99465.00;;;12.46;67.52
68137;BME280;54939;50.826;9.030;2024-03-17T00:33:51;99467.69;;;12.46;67.66
68137;BME280;54939;50.826;9.030;2024-03-17T00:34:21;99453.63;;;12.44;67.11
68137;BME280;54939;50.826;9.030;2024-03-17T00:34:52;99467.81;;;12.45;67.37
68137;BME280;54939;50.826;9.030;2024-03-17T00:35:23;99462.47;;;12.45;67.60
68137;BME280;54939;50.826;9.030;2024-03-17T00:35:53;99460.63;;;12.45;67.49
68137;BME280;54939;50.826;9.030;2024-03-17T00:36:24;99459.78;;;12.45;67.32
68137;BME280;54939;50.826;9.030;2024-03-17T00:36:54;99462.47;;;12.45;67.47
68137;BME280;54939;50.826;9.030;2024-03-17T00:37:24;99459.78;;;12.45;67.54
68137;BME280;54939;50.826;9.030;2024-03-17T00:37:54;99459.78;;;12.45;67.34
68137;BME280;54939;50.826;9.030;2024-03-17T00:38:24;99465.16;;;12.45;67.38
68137;BME280;54939;50.826;9.030;2024-03-17T00:38:54;99460.63;;;12.45;67.63
68137;BME280;54939;50.826;9.030;2024-03-17T00:39:25;99460.63;;;12.45;67.57
68137;BME280;54939;50.826;9.030;2024-03-17T00:39:55;99456.31;;;12.44;67.76
68137;BME280;54939;50.826;9.030;2024-03-17T00:40:26;99456.31;;;12.44;67.61
68137;BME280;54939;50.826;9.030;2024-03-17T00:40:56;99457.13;;;12.45;67.64
68137;BME280;54939;50.826;9.030;2024-03-17T00:41:26;99461.47;;;12.46;67.53
68137;BME280;54939;50.826;9.030;2024-03-17T00:41:57;99456.31;;;12.44;67.68
68137;BME280;54939;50.826;9.030;2024-03-17T00:42:27;99458.97;;;12.44;67.79
68137;BME280;54939;50.826;9.030;2024-03-17T00:42:57;99460.81;;;12.44;67.16
68137;BME280;54939;50.826;9.030;2024-03-17T00:43:28;99453.75;;;12.43;67.46
68137;BME280;54939;50.826;9.030;2024-03-17T00:43:58;99458.13;;;12.44;68.03
68137;BME280;54939;50.826;9.030;2024-03-17T00:44:30;99453.75;;;12.43;67.79
68137;BME280;54939;50.826;9.030;2024-03-17T00:45:01;99457.28;;;12.43;67.66
68137;BME280;54939;50.826;9.030;2024-03-17T00:45:31;99463.50;;;12.44;67.62
68137;BME280;54939;50.826;9.030;2024-03-17T00:46:01;99457.44;;;12.42;67.89
68137;BME280;54939;50.826;9.030;2024-03-17T00:46:32;99452.78;;;12.44;67.30
68137;BME280;54939;50.826;9.030;2024-03-17T00:47:03;99459.97;;;12.43;67.39
68137;BME280;54939;50.826;9.030;2024-03-17T00:47:33;99454.75;;;12.42;67.51
68137;BME280;54939;50.826;9.030;2024-03-17T00:48:03;99451.22;;;12.41;67.63
68137;BME280;54939;50.826;9.030;2024-03-17T00:48:33;99451.09;;;12.43;67.71
68137;BME280;54939;50.826;9.030;2024-03-17T00:49:04;99459.25;;;12.41;67.96
68137;BME280;54939;50.826;9.030;2024-03-17T00:49:35;99449.41;;;12.42;67.79
68137;BME280;54939;50.826;9.030;2024-03-17T00:50:06;99453.75;;;12.43;67.93
68137;BME280;54939;50.826;9.030;2024-03-17T00:50:41;99451.22;;;12.41;67.15
68137;BME280;54939;50.826;9.030;2024-03-17T00:51:11;99447.69;;;12.41;67.44
68137;BME280;54939;50.826;9.030;2024-03-17T00:51:41;99449.41;;;12.42;67.44
68137;BME280;54939;50.826;9.030;2024-03-17T00:52:12;99448.53;;;12.41;67.25
68137;BME280;54939;50.826;9.030;2024-03-17T00:52:42;99445.03;;;12.41;67.63
68137;BME280;54939;50.826;9.030;2024-03-17T00:53:13;99448.53;;;12.41;67.16
68137;BME280;54939;50.826;9.030;2024-03-17T00:53:44;99445.88;;;12.41;67.33
68137;BME280;54939;50.826;9.030;2024-03-17T00:54:14;99442.34;;;12.41;67.58
68137;BME280;54939;50.826;9.030;2024-03-17T00:54:46;99445.72;;;12.43;67.15
68137;BME280;54939;50.826;9.030;2024-03-17T00:55:17;99436.16;;;12.40;67.81
68137;BME280;54939;50.826;9.030;2024-03-17T00:55:53;99449.41;;;12.42;67.55
68137;BME280;54939;50.826;9.030;2024-03-17T00:56:23;99444.19;;;12.40;67.21
68137;BME280;54939;50.826;9.030;2024-03-17T00:56:53;99432.47;;;12.41;67.99
68137;BME280;54939;50.826;9.030;2024-03-17T00:57:24;99440.50;;;12.41;67.35
68137;BME280;54939;50.826;9.030;2024-03-17T00:57:54;99437.00;;;12.41;67.68
68137;BME280;54939;50.826;9.030;2024-03-17T00:58:24;99439.66;;;12.41;67.29
68137;BME280;54939;50.826;9.030;2024-03-17T00:58:54;99441.50;;;12.40;67.42
68137;BME280;54939;50.826;9.030;2024-03-17T00:59:24;99441.34;;;12.42;67.68
68137;BME280;54939;50.826;9.030;2024-03-17T00:59:55;99441.50;;;12.40;67.66
68137;BME280;54939;50.826;9.030;2024-03-17T01:00:25;99441.34;;;12.42;67.35
68137;BME280;54939;50.826;9.030;2024-03-17T01:00:55;99437.00;;;12.41;67.80
68137;BME280;54939;50.826;9.030;2024-03-17T01:01:25;99437.00;;;12.41;67.83
68137;BME280;54939;50.826;9.030;2024-03-17T01:01:55;99436.16;;;12.40;67.61
68137;BME280;54939;50.826;9.030;2024-03-17T01:02:25;99436.16;;;12.40;67.54
68137;BME280;54939;50.826;9.030;2024-03-17T01:02:56;99440.66;;;12.40;66.93
68137;BME280;54939;50.826;9.030;2024-03-17T01:03:26;99443.34;;;12.40;67.90
68137;BME280;54939;50.826;9.030;2024-03-17T01:03:57;99440.66;;;12.40;67.67
68137;BME280;54939;50.826;9.030;2024-03-17T01:04:27;99442.34;;;12.41;67.42
68137;BME280;54939;50.826;9.030;2024-03-17T01:04:58;99438.69;;;12.42;67.25
68137;BME280;54939;50.826;9.030;2024-03-17T01:05:28;99439.66;;;12.41;67.61
68137;BME280;54939;50.826;9.030;2024-03-17T01:05:59;99438.81;;;12.40;67.84
68137;BME280;54939;50.826;9.030;2024-03-17T01:06:29;99439.66;;;12.41;67.36
68137;BME280;54939;50.826;9.030;2024-03-17T01:06:59;99442.34;;;12.41;67.50
68137;BME280;54939;50.826;9.030;2024-03-17T01:07:29;99440.38;;;12.43;67.45
68137;BME280;54939;50.826;9.030;2024-03-17T01:08:00;99430.78;;;12.40;66.75
68137;BME280;54939;50.826;9.030;2024-03-17T01:08:30;99439.66;;;12.41;67.21
68137;BME280;54939;50.826;9.030;2024-03-17T01:09:00;99440.50;;;12.41;67.32
68137;BME280;54939;50.826;9.030;2024-03-17T01:09:31;99440.66;;;12.40;67.03
68137;BME280;54939;50.826;9.030;2024-03-17T01:10:01;99440.66;;;12.40;67.14
68137;BME280;54939;50.826;9.030;2024-03-17T01:10:31;99444.19;;;12.40;66.79
68137;BME280;54939;50.826;9.030;2024-03-17T01:11:01;99439.66;;;12.41;67.20
68137;BME280;54939;50.826;9.030;2024-03-17T01:11:33;99438.81;;;12.40;67.48
68137;BME280;54939;50.826;9.030;2024-03-17T01:12:03;99437.00;;;12.41;67.09
68137;BME280;54939;50.826;9.030;2024-03-17T01:12:34;99439.66;;;12.41;67.35
68137;BME280;54939;50.826;9.030;2024-03-17T01:13:05;99432.63;;;12.40;67.29
68137;BME280;54939;50.826;9.030;2024-03-17T01:13:35;99434.31;;;12.41;67.60
68137;BME280;54939;50.826;9.030;2024-03-17T01:14:11;99435.28;;;12.40;67.40
68137;BME280;54939;50.826;9.030;2024-03-17T01:14:41;99434.44;;;12.39;67.11
68137;BME280;54939;50.826;9.030;2024-03-17T01:15:11;99433.59;;;12.39;67.46
68137;BME280;54939;50.826;9.030;2024-03-17T01:15:41;99435.28;;;12.40;67.40
68137;BME280;54939;50.826;9.030;2024-03-17T01:16:13;99430.09;;;12.38;67.27
68137;BME280;54939;50.826;9.030;2024-03-17T01:16:43;99423.75;;;12.39;67.34
68137;BME280;54939;50.826;9.030;2024-03-17T01:17:13;99425.56;;;12.39;67.11
68137;BME280;54939;50.826;9.030;2024-03-17T01:17:43;99422.06;;;12.38;67.54
68137;BME280;54939;50.826;9.030;2024-03-17T01:18:13;99423.88;;;12.38;67.00
68137;BME280;54939;50.826;9.030;2024-03-17T01:18:43;99427.41;;;12.38;67.60
68137;BME280;54939;50.826;9.030;2024-03-17T01:19:15;99426.56;;;12.38;66.88
68137;BME280;54939;50.826;9.030;2024-03-17T01:19:45;99425.56;;;12.39;67.15
68137;BME280;54939;50.826;9.030;2024-03-17T01:20:16;99428.44;;;12.37;67.26
68137;BME280;54939;50.826;9.030;2024-03-17T01:20:46;99422.91;;;12.39;67.30
68137;BME280;54939;50.826;9.030;2024-03-17T01:21:16;99424.72;;;12.38;67.40
68137;BME280;54939;50.826;9.030;2024-03-17T01:21:47;99433.59;;;12.39;67.39
68137;BME280;54939;50.826;9.030;2024-03-17T01:22:17;99421.19;;;12.38;66.79
68137;BME280;54939;50.826;9.030;2024-03-17T01:22:47;99426.56;;;12.38;66.95
68137;BME280;54939;50.826;9.030;2024-03-17T01:23:17;99419.38;;;12.38;66.89
68137;BME280;54939;50.826;9.030;2024-03-17T01:23:48;99421.19;;;12.38;67.13
68137;BME280;54939;50.826;9.030;2024-03-17T01:24:18;99418.53;;;12.38;67.50
68137;BME280;54939;50.826;9.030;2024-03-17T01:24:49;99415.84;;;12.38;67.38
68137;BME280;54939;50.826;9.030;2024-03-17T01:25:19;99423.88;;;12.38;66.98
68137;BME280;54939;50.826;9.030;2024-03-17T01:25:49;99418.53;;;12.38;67.02
68137;BME280;54939;50.826;9.030;2024-03-17T01:26:20;99419.38;;;12.38;66.91
68137;BME280;54939;50.826;9.030;2024-03-17T01:26:50;99416.88;;;12.37;67.55
68137;BME280;54939;50.826;9.030;2024-03-17T01:27:20;99414.00;;;12.38;67.17
68137;BME280;54939;50.826;9.030;2024-03-17T01:27:51;99408.84;;;12.37;67.02
68137;BME280;54939;50.826;9.030;2024-03-17T01:28:21;99410.50;;;12.38;67.29
68137;BME280;54939;50.826;9.030;2024-03-17T01:28:51;99410.50;;;12.38;67.11
68137;BME280;54939;50.826;9.030;2024-03-17T01:29:22;99414.88;;;12.39;67.44
68137;BME280;54939;50.826;9.030;2024-03-17T01:29:52;99415.84;;;12.38;67.24
68137;BME280;54939;50.826;9.030;2024-03-17T01:30:22;99409.69;;;12.37;66.88
68137;BME280;54939;50.826;9.030;2024-03-17T01:30:53;99408.84;;;12.37;67.41
68137;BME280;54939;50.826;9.030;2024-03-17T01:31:23;99406.16;;;12.37;67.05
68137;BME280;54939;50.826;9.030;2024-03-17T01:31:54;99407.16;;;12.36;67.24
68137;BME280;54939;50.826;9.030;2024-03-17T01:32:25;99411.50;;;12.37;67.13
68137;BME280;54939;50.826;9.030;2024-03-17T01:32:55;99408.00;;;12.36;67.00
68137;BME280;54939;50.826;9.030;2024-03-17T01:33:26;99402.63;;;12.36;67.15
68137;BME280;54939;50.826;9.030;2024-03-17T01:33:56;99413.34;;;12.36;67.04
68137;BME280;54939;50.826;9.030;2024-03-17T01:34:26;99409.81;;;12.36;67.27
68137;BME280;54939;50.826;9.030;2024-03-17T01:34:56;99400.81;;;12.37;67.67
68137;BME280;54939;50.826;9.030;2024-03-17T01:35:26;99406.16;;;12.37;67.15
68137;BME280;54939;50.826;9.030;2024-03-17T01:35:57;99409.81;;;12.36;67.36
68137;BME280;54939;50.826;9.030;2024-03-17T01:36:27;99405.31;;;12.36;66.80
68137;BME280;54939;50.826;9.030;2024-03-17T01:36:57;99411.50;;;12.37;67.36
68137;BME280;54939;50.826;9.030;2024-03-17T01:37:27;99404.31;;;12.37;67.22
68137;BME280;54939;50.826;9.030;2024-03-17T01:38:01;99404.31;;;12.37;66.82
68137;BME280;54939;50.826;9.030;2024-03-17T01:38:32;99404.31;;;12.37;67.05
68137;BME280;54939;50.826;9.030;2024-03-17T01:39:02;99404.31;;;12.37;67.28
68137;BME280;54939;50.826;9.030;2024-03-17T01:39:32;99408.84;;;12.37;67.23
68137;BME280;54939;50.826;9.030;2024-03-17T01:40:03;99402.63;;;12.36;66.88
68137;BME280;54939;50.826;9.030;2024-03-17T01:40:38;99402.63;;;12.36;66.74
68137;BME280;54939;50.826;9.030;2024-03-17T01:41:08;99407.16;;;12.36;66.81
68137;BME280;54939;50.826;9.030;2024-03-17T01:41:38;99403.63;;;12.35;67.27
68137;BME280;54939;50.826;9.030;2024-03-17T01:42:08;99397.41;;;12.35;67.02
68137;BME280;54939;50.826;9.030;2024-03-17T01:42:39;99398.41;;;12.34;66.94
68137;BME280;54939;50.826;9.030;2024-03-17T01:43:10;99402.78;;;12.35;66.91
68137;BME280;54939;50.826;9.030;2024-03-17T01:43:40;99397.41;;;12.35;67.08
68137;BME280;54939;50.826;9.030;2024-03-17T01:44:23;99401.78;;;12.36;66.57
68137;BME280;54939;50.826;9.030;2024-03-17T01:44:53;99393.75;;;12.36;66.71
68137;BME280;54939;50.826;9.030;2024-03-17T01:45:30;99395.59;;;12.35;66.70
68137;BME280;54939;50.826;9.030;2024-03-17T01:46:01;99400.09;;;12.35;66.96
68137;BME280;54939;50.826;9.030;2024-03-17T01:46:32;99398.25;;;12.35;66.96
68137;BME280;54939;50.826;9.030;2024-03-17T01:47:02;99394.75;;;12.35;67.05
68137;BME280;54939;50.826;9.030;2024-03-17T01:47:33;99395.59;;;12.35;67.17
68137;BME280;54939;50.826;9.030;2024-03-17T01:48:03;99389.38;;;12.35;66.58
68137;BME280;54939;50.826;9.030;2024-03-17T01:48:35;99390.38;;;12.34;66.86
68137;BME280;54939;50.826;9.030;2024-03-17T01:49:05;99385.03;;;12.34;67.05
68137;BME280;54939;50.826;9.030;2024-03-17T01:49:37;99385.03;;;12.34;67.12
68137;BME280;54939;50.826;9.030;2024-03-17T01:50:08;99386.72;;;12.35;67.21
68137;BME280;54939;50.826;9.030;2024-03-17T01:50:38;99383.19;;;12.34;66.45
68137;BME280;54939;50.826;9.030;2024-03-17T01:51:10;99381.34;;;12.35;67.35
68137;BME280;54939;50.826;9.030;2024-03-17T01:51:40;99385.72;;;12.36;67.06
68137;BME280;54939;50.826;9.030;2024-03-17T01:52:11;99383.19;;;12.34;66.57
68137;BME280;54939;50.826;9.030;2024-03-17T01:52:41;99387.69;;;12.34;67.38
68137;BME280;54939;50.826;9.030;2024-03-17T01:53:12;99379.66;;;12.34;66.63
68137;BME280;54939;50.826;9.030;2024-03-17T01:53:43;99385.03;;;12.34;66.54
68137;BME280;54939;50.826;9.030;2024-03-17T01:54:14;99380.66;;;12.33;66.72
68137;BME280;54939;50.826;9.030;2024-03-17T01:54:45;99379.66;;;12.34;66.78
68137;BME280;54939;50.826;9.030;2024-03-17T01:55:16;99378.81;;;12.33;66.83
68137;BME280;54939;50.826;9.030;2024-03-17T01:55:47;99377.13;;;12.32;67.55
68137;BME280;54939;50.826;9.030;2024-03-17T01:56:17;99380.66;;;12.33;67.15
68137;BME280;54939;50.826;9.030;2024-03-17T01:56:47;99379.66;;;12.34;67.38
68137;BME280;54939;50.826;9.030;2024-03-17T01:57:18;99376.16;;;12.33;66.92
68137;BME280;54939;50.826;9.030;2024-03-17T01:57:49;99371.63;;;12.34;66.33
68137;BME280;54939;50.826;9.030;2024-03-17T01:58:20;99373.47;;;12.33;67.03
68137;BME280;54939;50.826;9.030;2024-03-17T01:58:50;99368.97;;;12.34;67.08
68137;BME280;54939;50.826;9.030;2024-03-17T01:59:21;99375.16;;;12.34;66.82
68137;BME280;54939;50.826;9.030;2024-03-17T01:59:51;99372.63;;;12.33;66.79
68137;BME280;54939;50.826;9.030;2024-03-17T02:00:21;99375.16;;;12.34;67.04
68137;BME280;54939;50.826;9.030;2024-03-17T02:00:53;99368.97;;;12.34;66.90
68137;BME280;54939;50.826;9.030;2024-03-17T02:01:23;99368.97;;;12.34;66.68
68137;BME280;54939;50.826;9.030;2024-03-17T02:01:53;99377.00;;;12.34;67.03
68137;BME280;54939;50.826;9.030;2024-03-17T02:02:23;99369.81;;;12.34;66.65
68137;BME280;54939;50.826;9.030;2024-03-17T02:02:54;99370.66;;;12.35;67.09
68137;BME280;54939;50.826;9.030;2024-03-17T02:03:24;99366.13;;;12.35;66.65
68137;BME280;54939;50.826;9.030;2024-03-17T02:03:54;99366.28;;;12.34;66.54
68137;BME280;54939;50.826;9.030;2024-03-17T02:04:24;99368.97;;;12.34;67.16
68137;BME280;54939;50.826;9.030;2024-03-17T02:04:54;99363.75;;;12.32;67.19
68137;BME280;54939;50.826;9.030;2024-03-17T02:05:24;99365.44;;;12.33;67.28
68137;BME280;54939;50.826;9.030;2024-03-17T02:05:54;99362.75;;;12.33;66.92
68137;BME280;54939;50.826;9.030;2024-03-17T02:06:25;99368.09;;;12.33;66.49
68137;BME280;54939;50.826;9.030;2024-03-17T02:06:55;99366.41;;;12.32;66.96
68137;BME280;54939;50.826;9.030;2024-03-17T02:07:25;99361.06;;;12.32;66.85
68137;BME280;54939;50.826;9.030;2024-03-17T02:07:55;99358.38;;;12.32;66.79
68137;BME280;54939;50.826;9.030;2024-03-17T02:08:25;99362.06;;;12.31;66.62
68137;BME280;54939;50.826;9.030;2024-03-17T02:08:56;99363.75;;;12.32;67.13
68137;BME280;54939;50.826;9.030;2024-03-17T02:09:27;99361.06;;;12.32;67.13
68137;BME280;54939;50.826;9.030;2024-03-17T02:09:58;99367.25;;;12.33;66.86
68137;BME280;54939;50.826;9.030;2024-03-17T02:10:28;99358.38;;;12.32;66.54
68137;BME280;54939;50.826;9.030;2024-03-17T02:10:58;99360.22;;;12.32;66.59
68137;BME280;54939;50.826;9.030;2024-03-17T02:11:30;99360.22;;;12.32;66.50
68137;BME280;54939;50.826;9.030;2024-03-17T02:12:00;99357.53;;;12.32;66.43
68137;BME280;54939;50.826;9.030;2024-03-17T02:12:31;99358.38;;;12.32;67.18
68137;BME280;54939;50.826;9.030;2024-03-17T02:13:01;99363.75;;;12.32;66.68
68137;BME280;54939;50.826;9.030;2024-03-17T02:13:33;99363.75;;;12.32;67.03
68137;BME280;54939;50.826;9.030;2024-03-17T02:14:03;99358.38;;;12.32;67.03
68137;BME280;54939;50.826;9.030;2024-03-17T02:14:33;99359.22;;;12.33;66.58
68137;BME280;54939;50.826;9.030;2024-03-17T02:15:04;99359.38;;;12.31;66.79
68137;BME280;54939;50.826;9.030;2024-03-17T02:15:35;99361.06;;;12.32;66.69
68137;BME280;54939;50.826;9.030;2024-03-17T02:16:05;99365.44;;;12.33;66.91
68137;BME280;54939;50.826;9.030;2024-03-17T02:16:35;99361.06;;;12.32;67.01
68137;BME280;54939;50.826;9.030;2024-03-17T02:17:06;99354.03;;;12.31;67.34
68137;BME280;54939;50.826;9.030;2024-03-17T02:17:36;99362.06;;;12.31;66.82
68137;BME280;54939;50.826;9.030;2024-03-17T02:18:09;99354.03;;;12.31;66.73
68137;BME280;54939;50.826;9.030;2024-03-17T02:18:39;99358.38;;;12.32;66.83
68137;BME280;54939;50.826;9.030;2024-03-17T02:19:10;99355.88;;;12.31;66.60
68137;BME280;54939;50.826;9.030;2024-03-17T02:19:40;99356.69;;;12.31;66.73
68137;BME280;54939;50.826;9.030;2024-03-17T02:20:11;99362.06;;;12.31;66.89
68137;BME280;54939;50.826;9.030;2024-03-17T02:20:41;99359.22;;;12.33;66.85
68137;BME280;54939;50.826;9.030;2024-03-17T02:21:29;99356.69;;;12.31;66.69
68137;BME280;54939;50.826;9.030;2024-03-17T02:22:00;99359.56;;;12.30;67.09
68137;BME280;54939;50.826;9.030;2024-03-17T02:22:30;99355.72;;;12.32;66.96
68137;BME280;54939;50.826;9.030;2024-03-17T02:23:00;99356.69;;;12.31;66.95
68137;BME280;54939;50.826;9.030;2024-03-17T02:23:30;99355.88;;;12.31;66.63
68137;BME280;54939;50.826;9.030;2024-03-17T02:24:03;99360.41;;;12.30;66.66
68137;BME280;54939;50.826;9.030;2024-03-17T02:24:33;99361.25;;;12.31;66.51
68137;BME280;54939;50.826;9.030;2024-03-17T02:25:03;99358.56;;;12.31;66.68
68137;BME280;54939;50.826;9.030;2024-03-17T02:25:33;99354.03;;;12.31;66.59
68137;BME280;54939;50.826;9.030;2024-03-17T02:26:04;99355.88;;;12.31;66.41
68137;BME280;54939;50.826;9.030;2024-03-17T02:26:34;99355.88;;;12.31;66.60
68137;BME280;54939;50.826;9.030;2024-03-17T02:27:05;99354.19;;;12.30;66.95
68137;BME280;54939;50.826;9.030;2024-03-17T02:27:35;99347.00;;;12.30;66.81
68137;BME280;54939;50.826;9.030;2024-03-17T02:28:06;99353.22;;;12.31;66.99
68137;BME280;54939;50.826;9.030;2024-03-17T02:28:43;99350.69;;;12.29;66.88
68137;BME280;54939;50.826;9.030;2024-03-17T02:29:14;99350.69;;;12.29;66.73
68137;BME280;54939;50.826;9.030;2024-03-17T02:29:44;99358.56;;;12.31;66.79
68137;BME280;54939;50.826;9.030;2024-03-17T02:30:15;99352.38;;;12.30;66.71
68137;BME280;54939;50.826;9.030;2024-03-17T02:30:45;99348.84;;;12.30;67.09
68137;BME280;54939;50.826;9.030;2024-03-17T02:31:16;99355.19;;;12.29;66.32
68137;BME280;54939;50.826;9.030;2024-03-17T02:31:46;99348.84;;;12.30;66.63
68137;BME280;54939;50.826;9.030;2024-03-17T02:32:17;99348.00;;;12.29;66.47
68137;BME280;54939;50.826;9.030;2024-03-17T02:32:51;99350.69;;;12.29;66.76
68137;BME280;54939;50.826;9.030;2024-03-17T02:33:21;99348.84;;;12.30;66.87
68137;BME280;54939;50.826;9.030;2024-03-17T02:33:53;99349.69;;;12.30;66.93
68137;BME280;54939;50.826;9.030;2024-03-17T02:34:23;99354.19;;;12.30;67.01
68137;BME280;54939;50.826;9.030;2024-03-17T02:34:53;99351.50;;;12.30;66.56
68137;BME280;54939;50.826;9.030;2024-03-17T02:35:24;99349.81;;;12.29;66.46
68137;BME280;54939;50.826;9.030;2024-03-17T02:35:55;99353.34;;;12.29;66.38
68137;BME280;54939;50.826;9.030;2024-03-17T02:36:25;99343.47;;;12.30;66.45
68137;BME280;54939;50.826;9.030;2024-03-17T02:36:55;99351.66;;;12.28;66.28
68137;BME280;54939;50.826;9.030;2024-03-17T02:37:25;99348.13;;;12.28;66.51
68137;BME280;54939;50.826;9.030;2024-03-17T02:37:55;99346.44;;;12.27;66.32
68137;BME280;54939;50.826;9.030;2024-03-17T02:38:25;99350.81;;;12.28;66.84
68137;BME280;54939;50.826;9.030;2024-03-17T02:39:14;99344.63;;;12.27;66.44
68137;BME280;54939;50.826;9.030;2024-03-17T02:40:03;99345.47;;;12.28;66.75
68137;BME280;54939;50.826;9.030;2024-03-17T02:40:35;99338.28;;;12.28;66.33
68137;BME280;54939;50.826;9.030;2024-03-17T02:41:05;99340.94;;;12.28;67.06
68137;BME280;54939;50.826;9.030;2024-03-17T02:41:36;99346.16;;;12.30;66.95
68137;BME280;54939;50.826;9.030;2024-03-17T02:42:06;99339.97;;;12.29;66.79
68137;BME280;54939;50.826;9.030;2024-03-17T02:42:37;99348.97;;;12.28;66.57
68137;BME280;54939;50.826;9.030;2024-03-17T02:43:14;99347.16;;;12.29;66.57